Time;durP1;ratioP1;P1;durP2;ratioP2;P2;SDS_P1;SDS_P2;PMS_P1;PMS_P2;Temp;Humidity;BMP_temperature;BMP_pressure;BME280_temperature;BME280_humidity;BME280_pressure;Samples;Min_cycle;Max_cycle;Signal;HPM_P1;HPM_P2
2023/08/19 00:02:12;;;;;;;3.53;3.30;;;;;;;;;;4963006;28;20301;-67
2023/08/19 00:04:41;;;;;;;4.03;3.72;;;;;;;;;;4968136;28;20214;-66
2023/08/19 00:07:08;;;;;;;3.50;3.25;;;;;;;;;;4968362;28;20214;-67
2023/08/19 00:09:37;;;;;;;3.70;3.42;;;;;;;;;;4968536;28;20269;-67
2023/08/19 00:12:04;;;;;;;4.07;3.55;;;;;;;;;;4968342;28;20716;-67
2023/08/19 00:14:32;;;;;;;3.35;3.13;;;;;;;;;;4966152;28;20242;-67
2023/08/19 00:16:59;;;;;;;4.70;3.00;;;;;;;;;;4966555;28;20206;-67
2023/08/19 00:19:26;;;;;;;4.43;3.22;;;;;;;;;;4968527;28;20214;-66
2023/08/19 00:21:54;;;;;;;4.05;3.60;;;;;;;;;;4966115;28;20926;-66
2023/08/19 00:24:21;;;;;;;3.47;3.38;;;;;;;;;;4967525;28;20199;-65
2023/08/19 00:26:48;;;;;;;3.70;3.40;;;;;;;;;;4967485;28;20199;-64
2023/08/19 00:29:15;;;;;;;4.53;3.10;;;;;;;;;;4967973;28;20226;-65
2023/08/19 00:31:43;;;;;;;4.05;3.67;;;;;;;;;;4968007;28;20704;-65
2023/08/19 00:34:10;;;;;;;3.65;3.20;;;;;;;;;;4967886;28;20210;-65
2023/08/19 00:36:37;;;;;;;3.85;3.30;;;;;;;;;;4966996;28;20210;-64
2023/08/19 00:39:05;;;;;;;6.30;3.47;;;;;;;;;;4967190;28;20218;-65
2023/08/19 00:41:33;;;;;;;3.05;2.95;;;;;;;;;;4967852;28;20350;-65
2023/08/19 00:44:01;;;;;;;4.18;3.50;;;;;;;;;;4967723;28;20241;-64
2023/08/19 00:46:28;;;;;;;5.13;3.38;;;;;;;;;;4967121;28;20210;-64
2023/08/19 00:48:55;;;;;;;6.55;3.10;;;;;;;;;;4967423;28;20210;-64
2023/08/19 00:51:22;;;;;;;5.15;3.00;;;;;;;;;;4967308;28;20616;-65
2023/08/19 00:53:49;;;;;;;3.63;2.97;;;;;;;;;;4967255;28;20209;-64
2023/08/19 00:56:18;;;;;;;7.20;3.47;;;;;;;;;;4967513;28;20214;-65
2023/08/19 00:58:45;;;;;;;7.82;3.20;;;;;;;;;;4963621;28;20881;-64
2023/08/19 01:01:12;;;;;;;4.65;3.05;;;;;;;;;;4961680;28;20238;-64
2023/08/19 01:03:39;;;;;;;3.53;3.20;;;;;;;;;;4963225;28;20699;-64
2023/08/19 01:06:16;;;;;;;3.22;2.95;;;;;;;;;;4965143;28;20211;-65
2023/08/19 01:08:45;;;;;;;4.72;3.33;;;;;;;;;;4962040;28;20213;-66
2023/08/19 01:11:16;;;;;;;3.15;3.00;;;;;;;;;;4963822;28;20245;-67
2023/08/19 01:13:47;;;;;;;4.78;3.28;;;;;;;;;;4967005;28;20218;-66
2023/08/19 01:16:18;;;;;;;3.28;3.00;;;;;;;;;;4966239;28;20732;-64
2023/08/19 01:18:45;;;;;;;6.15;3.17;;;;;;;;;;4967234;28;20217;-64
2023/08/19 01:21:13;;;;;;;7.35;3.15;;;;;;;;;;4967339;28;20246;-64
2023/08/19 01:23:43;;;;;;;5.97;3.22;;;;;;;;;;4967276;28;20225;-64
2023/08/19 01:26:12;;;;;;;4.15;3.45;;;;;;;;;;4966671;28;20206;-64
2023/08/19 01:28:39;;;;;;;4.60;2.90;;;;;;;;;;4966651;28;20215;-64
2023/08/19 01:31:06;;;;;;;3.10;2.88;;;;;;;;;;4967009;28;20202;-64
2023/08/19 01:33:33;;;;;;;4.15;3.30;;;;;;;;;;4967058;28;20215;-64
2023/08/19 01:36:05;;;;;;;5.97;3.08;;;;;;;;;;4966915;28;20210;-64
2023/08/19 01:38:35;;;;;;;3.65;3.30;;;;;;;;;;4966952;28;20211;-67
2023/08/19 01:41:03;;;;;;;3.33;3.13;;;;;;;;;;4966839;28;20230;-65
2023/08/19 01:43:32;;;;;;;3.75;3.40;;;;;;;;;;4967051;28;20258;-65
2023/08/19 01:45:59;;;;;;;4.53;2.92;;;;;;;;;;4965999;28;20217;-65
2023/08/19 01:48:26;;;;;;;3.30;3.00;;;;;;;;;;4965965;28;20218;-65
2023/08/19 01:50:53;;;;;;;3.40;2.90;;;;;;;;;;4967025;28;20210;-65
2023/08/19 01:53:20;;;;;;;3.28;3.08;;;;;;;;;;4966981;28;20214;-64
2023/08/19 01:55:47;;;;;;;3.40;3.10;;;;;;;;;;4966425;28;20213;-65
2023/08/19 01:58:14;;;;;;;5.35;3.00;;;;;;;;;;4966863;28;20241;-65
2023/08/19 02:00:42;;;;;;;3.05;2.95;;;;;;;;;;4966458;28;20798;-65
2023/08/19 02:03:09;;;;;;;6.88;3.33;;;;;;;;;;4966720;28;20221;-65
2023/08/19 02:05:36;;;;;;;3.30;3.00;;;;;;;;;;4966184;28;20211;-65
2023/08/19 02:08:04;;;;;;;4.82;3.25;;;;;;;;;;4966803;28;20212;-65
2023/08/19 02:10:32;;;;;;;5.18;2.78;;;;;;;;;;4966021;28;20237;-65
2023/08/19 02:12:59;;;;;;;4.07;2.67;;;;;;;;;;4966192;28;20363;-64
2023/08/19 02:15:26;;;;;;;3.40;3.20;;;;;;;;;;4966400;28;20213;-65
2023/08/19 02:17:55;;;;;;;7.05;3.17;;;;;;;;;;4966497;28;20214;-65
2023/08/19 02:20:22;;;;;;;3.45;3.25;;;;;;;;;;4966391;28;20221;-65
2023/08/19 02:22:49;;;;;;;5.10;3.40;;;;;;;;;;4966154;28;20210;-65
2023/08/19 02:25:16;;;;;;;4.93;2.92;;;;;;;;;;4966126;28;20424;-65
2023/08/19 02:27:44;;;;;;;5.07;2.60;;;;;;;;;;4966622;28;20202;-65
2023/08/19 02:30:12;;;;;;;4.22;3.10;;;;;;;;;;4966877;28;20668;-65
2023/08/19 02:32:40;;;;;;;3.20;3.10;;;;;;;;;;4966387;28;20221;-65
2023/08/19 02:35:09;;;;;;;4.50;3.25;;;;;;;;;;4966420;28;20839;-65
2023/08/19 02:37:36;;;;;;;4.43;3.17;;;;;;;;;;4966499;28;20210;-65
2023/08/19 02:40:04;;;;;;;3.83;3.00;;;;;;;;;;4966152;28;20206;-65
2023/08/19 02:42:31;;;;;;;4.25;3.85;;;;;;;;;;4966355;28;20678;-65
2023/08/19 02:44:58;;;;;;;7.25;3.10;;;;;;;;;;4966294;28;20214;-65
2023/08/19 02:47:26;;;;;;;3.00;2.58;;;;;;;;;;4966207;28;20309;-65
2023/08/19 02:49:53;;;;;;;5.07;3.15;;;;;;;;;;4966228;28;20211;-65
2023/08/19 02:52:22;;;;;;;4.45;3.03;;;;;;;;;;4966525;28;20214;-65
2023/08/19 02:54:49;;;;;;;4.70;2.88;;;;;;;;;;4965497;28;20265;-65
2023/08/19 02:57:16;;;;;;;3.33;3.03;;;;;;;;;;4966547;28;20217;-65
2023/08/19 02:59:43;;;;;;;2.90;2.80;;;;;;;;;;4969212;28;20699;-65
2023/08/19 03:02:10;;;;;;;3.17;2.97;;;;;;;;;;4969942;28;20249;-65
2023/08/19 03:04:37;;;;;;;4.20;3.17;;;;;;;;;;4969922;28;20751;-65
2023/08/19 03:07:04;;;;;;;3.40;3.10;;;;;;;;;;4969391;28;20804;-65
2023/08/19 03:09:33;;;;;;;3.35;3.10;;;;;;;;;;4950744;28;20231;-65
2023/08/19 03:12:00;;;;;;;3.20;3.00;;;;;;;;;;4950732;29;20243;-65
2023/08/19 03:14:27;;;;;;;3.53;3.20;;;;;;;;;;4959099;28;20210;-65
2023/08/19 03:16:54;;;;;;;5.15;2.90;;;;;;;;;;4969301;28;20297;-65
2023/08/19 03:19:21;;;;;;;3.67;3.38;;;;;;;;;;4970067;28;20209;-64
2023/08/19 03:21:49;;;;;;;5.55;3.10;;;;;;;;;;4970197;28;20242;-65
2023/08/19 03:24:16;;;;;;;3.05;2.85;;;;;;;;;;4969963;28;20633;-65
2023/08/19 03:26:44;;;;;;;6.93;3.03;;;;;;;;;;4969815;28;20215;-65
2023/08/19 03:29:11;;;;;;;3.00;2.75;;;;;;;;;;4967857;28;20223;-65
2023/08/19 03:31:38;;;;;;;3.40;3.15;;;;;;;;;;4969929;28;20310;-64
2023/08/19 03:34:06;;;;;;;3.45;2.75;;;;;;;;;;4967501;28;20218;-65
2023/08/19 03:36:33;;;;;;;3.08;2.78;;;;;;;;;;4988799;28;20216;-65
2023/08/19 03:39:00;;;;;;;5.05;2.58;;;;;;;;;;4987929;28;20248;-64
2023/08/19 03:41:27;;;;;;;3.78;2.83;;;;;;;;;;4969675;28;20229;-65
2023/08/19 03:43:55;;;;;;;3.00;2.80;;;;;;;;;;4969737;28;20217;-65
2023/08/19 03:46:22;;;;;;;4.63;2.92;;;;;;;;;;4969652;28;20206;-65
2023/08/19 03:48:49;;;;;;;3.20;2.95;;;;;;;;;;4969147;28;20210;-65
2023/08/19 03:51:16;;;;;;;4.20;3.15;;;;;;;;;;4969277;28;20673;-64
2023/08/19 03:53:43;;;;;;;3.40;2.90;;;;;;;;;;4969662;28;20221;-64
2023/08/19 03:56:10;;;;;;;4.00;2.85;;;;;;;;;;4969042;28;20233;-65
2023/08/19 03:58:37;;;;;;;3.45;2.92;;;;;;;;;;4969334;28;20214;-64
2023/08/19 04:01:07;;;;;;;2.90;2.70;;;;;;;;;;4969211;28;20590;-65
2023/08/19 04:03:34;;;;;;;3.35;2.90;;;;;;;;;;4969483;28;20214;-70
2023/08/19 04:06:01;;;;;;;2.97;2.80;;;;;;;;;;4969220;28;20209;-73
2023/08/19 04:08:29;;;;;;;3.80;3.50;;;;;;;;;;4969094;28;20905;-68
2023/08/19 04:10:56;;;;;;;3.90;2.90;;;;;;;;;;4968167;28;20394;-73
2023/08/19 04:13:23;;;;;;;4.95;3.03;;;;;;;;;;4969123;28;20603;-73
2023/08/19 04:15:50;;;;;;;6.00;3.03;;;;;;;;;;4969184;28;20696;-73
2023/08/19 04:18:19;;;;;;;3.28;3.05;;;;;;;;;;4966214;28;20613;-73
2023/08/19 04:20:46;;;;;;;3.25;2.92;;;;;;;;;;4965565;28;20672;-72
2023/08/19 04:23:13;;;;;;;4.82;3.17;;;;;;;;;;4968864;28;20262;-73
2023/08/19 04:25:40;;;;;;;2.97;2.88;;;;;;;;;;4968831;28;20232;-75
2023/08/19 04:28:07;;;;;;;3.20;3.00;;;;;;;;;;4968926;28;20232;-74
2023/08/19 04:30:36;;;;;;;8.82;3.22;;;;;;;;;;4968764;28;20389;-74
2023/08/19 04:33:04;;;;;;;4.45;3.05;;;;;;;;;;4968832;28;20587;-74
2023/08/19 04:35:32;;;;;;;2.83;2.70;;;;;;;;;;4965404;28;20249;-73
2023/08/19 04:38:00;;;;;;;3.42;3.13;;;;;;;;;;4966778;28;20229;-74
2023/08/19 04:40:27;;;;;;;3.03;2.78;;;;;;;;;;4968193;28;20669;-75
2023/08/19 04:42:54;;;;;;;3.30;3.10;;;;;;;;;;4965902;28;20767;-73
2023/08/19 04:45:21;;;;;;;2.65;2.53;;;;;;;;;;4965164;28;20211;-73
2023/08/19 04:47:48;;;;;;;4.28;3.10;;;;;;;;;;4966067;28;20210;-73
2023/08/19 04:50:15;;;;;;;3.72;2.88;;;;;;;;;;4968529;28;20206;-74
2023/08/19 04:52:43;;;;;;;3.00;2.80;;;;;;;;;;4967861;28;20217;-72
2023/08/19 04:55:10;;;;;;;2.80;2.70;;;;;;;;;;4962808;28;20225;-73
2023/08/19 04:57:37;;;;;;;3.28;3.05;;;;;;;;;;4968438;28;20217;-74
2023/08/19 05:00:06;;;;;;;5.03;3.00;;;;;;;;;;4968473;28;20217;-74
2023/08/19 05:02:33;;;;;;;2.65;2.53;;;;;;;;;;4967668;28;20676;-74
2023/08/19 05:05:00;;;;;;;3.00;2.90;;;;;;;;;;4967426;28;20214;-74
2023/08/19 05:07:27;;;;;;;3.00;2.80;;;;;;;;;;4967641;28;20213;-72
2023/08/19 05:09:55;;;;;;;3.10;3.00;;;;;;;;;;4960481;28;20261;-73
2023/08/19 05:12:22;;;;;;;6.18;2.90;;;;;;;;;;4968073;28;20720;-72
2023/08/19 05:14:50;;;;;;;3.47;3.28;;;;;;;;;;4966465;28;20608;-73
2023/08/19 05:17:17;;;;;;;4.88;3.22;;;;;;;;;;4967717;28;20304;-73
2023/08/19 05:19:44;;;;;;;3.10;2.90;;;;;;;;;;4966937;28;20217;-73
2023/08/19 05:22:11;;;;;;;3.55;3.25;;;;;;;;;;4963620;28;20237;-73
2023/08/19 05:24:38;;;;;;;3.28;3.08;;;;;;;;;;4965332;28;20210;-73
2023/08/19 05:27:06;;;;;;;2.95;2.75;;;;;;;;;;4967482;28;20695;-73
2023/08/19 05:29:33;;;;;;;3.42;3.10;;;;;;;;;;4966961;28;20241;-74
2023/08/19 05:32:00;;;;;;;2.75;2.67;;;;;;;;;;4967033;28;20727;-74
2023/08/19 05:34:27;;;;;;;4.28;3.17;;;;;;;;;;4967315;28;20206;-74
2023/08/19 05:36:54;;;;;;;3.22;3.03;;;;;;;;;;4967570;28;20206;-74
2023/08/19 05:39:21;;;;;;;3.08;2.88;;;;;;;;;;4967484;28;20219;-74
2023/08/19 05:41:48;;;;;;;2.90;2.80;;;;;;;;;;4966691;28;20237;-75
2023/08/19 05:44:17;;;;;;;3.13;2.75;;;;;;;;;;4967311;28;20221;-75
2023/08/19 05:46:44;;;;;;;3.50;2.67;;;;;;;;;;4966745;28;20214;-75
2023/08/19 05:49:11;;;;;;;2.97;2.63;;;;;;;;;;4967122;28;20229;-75
2023/08/19 05:51:38;;;;;;;3.33;3.10;;;;;;;;;;4967140;28;20206;-75
2023/08/19 05:54:07;;;;;;;4.10;2.55;;;;;;;;;;4967367;28;20217;-76
2023/08/19 05:56:34;;;;;;;8.18;3.08;;;;;;;;;;4966140;28;20225;-76
2023/08/19 05:59:01;;;;;;;4.00;2.58;;;;;;;;;;4965900;28;20577;-77
2023/08/19 06:01:30;;;;;;;5.35;2.75;;;;;;;;;;4963150;28;20685;-69
2023/08/19 06:03:59;;;;;;;3.35;3.08;;;;;;;;;;4965880;28;20206;-74
2023/08/19 06:06:26;;;;;;;2.42;2.42;;;;;;;;;;4965638;28;20245;-76
2023/08/19 06:08:53;;;;;;;6.32;2.90;;;;;;;;;;4964239;28;20261;-75
2023/08/19 06:11:20;;;;;;;2.95;2.85;;;;;;;;;;4965595;28;20806;-75
2023/08/19 06:13:48;;;;;;;3.67;3.28;;;;;;;;;;4966556;28;20471;-77
2023/08/19 06:16:15;;;;;;;3.10;2.90;;;;;;;;;;4966338;28;20199;-76
2023/08/19 06:18:43;;;;;;;3.33;2.90;;;;;;;;;;4966383;28;20221;-77
2023/08/19 06:21:10;;;;;;;3.17;3.03;;;;;;;;;;4966714;28;20226;-76
2023/08/19 06:23:41;;;;;;;6.07;3.13;;;;;;;;;;4966077;28;20226;-76
2023/08/19 06:26:08;;;;;;;2.60;2.42;;;;;;;;;;4965816;28;20973;-76
2023/08/19 06:28:35;;;;;;;4.63;2.70;;;;;;;;;;4966464;28;20237;-76
2023/08/19 06:31:02;;;;;;;2.65;2.45;;;;;;;;;;4964580;28;20257;-76
2023/08/19 06:33:29;;;;;;;2.83;2.63;;;;;;;;;;4965708;28;20207;-76
2023/08/19 06:35:59;;;;;;;3.20;2.90;;;;;;;;;;4970785;28;20443;-76
2023/08/19 06:38:28;;;;;;;3.05;2.70;;;;;;;;;;4970454;28;20257;-77
2023/08/19 06:40:57;;;;;;;3.03;2.72;;;;;;;;;;4969832;28;20636;-77
2023/08/19 06:43:26;;;;;;;2.95;2.65;;;;;;;;;;4970526;28;20229;-77
2023/08/19 06:45:54;;;;;;;3.03;2.45;;;;;;;;;;4969086;28;20214;-76
2023/08/19 06:48:22;;;;;;;3.58;2.72;;;;;;;;;;4970303;28;20214;-77
2023/08/19 06:50:49;;;;;;;4.78;2.80;;;;;;;;;;4968350;28;20230;-74
2023/08/19 06:53:18;;;;;;;3.75;2.40;;;;;;;;;;4969928;28;20206;-74
2023/08/19 06:55:49;;;;;;;2.72;2.63;;;;;;;;;;4970077;28;20214;-76
2023/08/19 06:58:20;;;;;;;3.33;2.70;;;;;;;;;;4969932;28;20596;-75
2023/08/19 07:00:49;;;;;;;3.00;2.63;;;;;;;;;;4969300;28;20202;-75
2023/08/19 07:03:18;;;;;;;2.80;2.65;;;;;;;;;;4969834;28;20230;-75
2023/08/19 07:05:46;;;;;;;2.83;2.75;;;;;;;;;;4969887;28;20696;-75
2023/08/19 07:08:14;;;;;;;2.38;2.28;;;;;;;;;;4973292;28;20269;-74
2023/08/19 07:10:44;;;;;;;5.43;2.25;;;;;;;;;;4969113;28;20257;-75
2023/08/19 07:13:11;;;;;;;2.75;2.55;;;;;;;;;;4970069;28;21116;-76
2023/08/19 07:15:41;;;;;;;2.53;2.42;;;;;;;;;;4969985;28;20215;-76
2023/08/19 07:18:11;;;;;;;2.65;2.42;;;;;;;;;;4969768;28;20230;-75
2023/08/19 07:20:38;;;;;;;2.38;2.28;;;;;;;;;;4969443;28;20214;-75
2023/08/19 07:23:07;;;;;;;3.17;2.63;;;;;;;;;;4969824;28;20747;-75
2023/08/19 07:25:34;;;;;;;2.50;2.40;;;;;;;;;;4969355;28;20221;-75
2023/08/19 07:28:04;;;;;;;2.97;2.17;;;;;;;;;;4969438;28;20210;-75
2023/08/19 07:30:32;;;;;;;2.22;2.10;;;;;;;;;;4968830;28;20297;-74
2023/08/19 07:32:59;;;;;;;3.67;2.88;;;;;;;;;;4969405;28;20470;-74
2023/08/19 07:35:26;;;;;;;2.75;2.55;;;;;;;;;;4969119;28;20210;-63
2023/08/19 07:37:54;;;;;;;2.22;2.10;;;;;;;;;;4969651;28;20282;-64
2023/08/19 07:40:21;;;;;;;2.50;2.42;;;;;;;;;;4967905;28;20213;-63
2023/08/19 07:42:48;;;;;;;4.75;2.70;;;;;;;;;;4963119;28;20237;-63
2023/08/19 07:45:16;;;;;;;2.70;2.50;;;;;;;;;;4965431;28;20210;-63
2023/08/19 07:47:43;;;;;;;5.30;2.42;;;;;;;;;;4968274;28;20222;-67
2023/08/19 07:50:11;;;;;;;2.47;2.47;;;;;;;;;;4967966;28;20202;-67
2023/08/19 07:52:38;;;;;;;2.90;2.70;;;;;;;;;;4968514;28;20206;-67
2023/08/19 07:55:05;;;;;;;2.65;2.55;;;;;;;;;;4968805;28;20217;-67
2023/08/19 07:57:32;;;;;;;2.63;2.40;;;;;;;;;;4967595;28;20516;-66
2023/08/19 07:59:59;;;;;;;3.03;2.72;;;;;;;;;;4968419;28;20206;-67
2023/08/19 08:02:27;;;;;;;2.42;2.33;;;;;;;;;;4968273;28;20222;-68
2023/08/19 08:04:55;;;;;;;3.20;2.28;;;;;;;;;;4968610;28;20214;-69
2023/08/19 08:07:22;;;;;;;2.60;2.40;;;;;;;;;;4968882;28;20324;-69
2023/08/19 08:09:49;;;;;;;5.00;2.25;;;;;;;;;;4968669;28;20230;-69
2023/08/19 08:12:16;;;;;;;4.07;2.65;;;;;;;;;;4967991;28;20996;-69
2023/08/19 08:14:43;;;;;;;2.90;2.70;;;;;;;;;;4967616;28;20213;-68
2023/08/19 08:17:10;;;;;;;6.90;2.53;;;;;;;;;;4964306;28;20207;-68
2023/08/19 08:19:39;;;;;;;3.03;2.70;;;;;;;;;;4968371;28;20210;-67
2023/08/19 08:22:07;;;;;;;2.47;2.38;;;;;;;;;;4969128;28;20241;-68
2023/08/19 08:24:35;;;;;;;2.88;2.67;;;;;;;;;;4961217;28;20222;-68
2023/08/19 08:27:02;;;;;;;3.15;2.75;;;;;;;;;;4954620;28;20214;-68
2023/08/19 08:29:29;;;;;;;2.38;2.28;;;;;;;;;;4959956;28;20215;-68
2023/08/19 08:31:56;;;;;;;6.38;2.47;;;;;;;;;;4967359;28;20214;-68
2023/08/19 08:34:23;;;;;;;2.72;2.63;;;;;;;;;;4967162;28;20219;-68
2023/08/19 08:36:51;;;;;;;3.03;2.55;;;;;;;;;;4966731;28;20599;-66
2023/08/19 08:39:19;;;;;;;6.82;2.83;;;;;;;;;;4967224;28;20225;-66
2023/08/19 08:41:46;;;;;;;2.50;2.40;;;;;;;;;;4967389;28;20210;-66
2023/08/19 08:44:13;;;;;;;3.47;2.58;;;;;;;;;;4967704;28;20285;-68
2023/08/19 08:46:41;;;;;;;3.20;2.92;;;;;;;;;;4964863;28;20269;-66
2023/08/19 08:49:09;;;;;;;2.40;2.30;;;;;;;;;;4965747;28;20209;-67
2023/08/19 08:51:36;;;;;;;4.38;2.83;;;;;;;;;;4971496;28;20197;-67
2023/08/19 08:54:07;;;;;;;3.03;2.53;;;;;;;;;;4982526;28;20216;-66
2023/08/19 08:56:34;;;;;;;3.30;2.35;;;;;;;;;;4966985;28;20210;-66
2023/08/19 08:59:01;;;;;;;3.70;2.92;;;;;;;;;;4967001;28;20213;-68
2023/08/19 09:01:29;;;;;;;3.00;2.80;;;;;;;;;;4967734;28;20237;-68
2023/08/19 09:03:59;;;;;;;5.43;2.88;;;;;;;;;;4967036;28;20249;-69
2023/08/19 09:06:26;;;;;;;2.97;2.78;;;;;;;;;;4974390;28;20209;-68
2023/08/19 09:08:57;;;;;;;3.00;2.78;;;;;;;;;;4966844;28;20234;-69
2023/08/19 09:11:27;;;;;;;3.67;2.38;;;;;;;;;;4966664;28;20731;-68
2023/08/19 09:13:56;;;;;;;4.10;2.75;;;;;;;;;;4967046;28;20214;-66
2023/08/19 09:16:23;;;;;;;4.13;3.13;;;;;;;;;;4967120;28;20210;-67
2023/08/19 09:18:51;;;;;;;5.50;2.47;;;;;;;;;;4967046;28;20206;-66
2023/08/19 09:21:19;;;;;;;3.20;2.50;;;;;;;;;;4966753;28;20226;-66
2023/08/19 09:23:46;;;;;;;2.58;2.47;;;;;;;;;;4966653;28;20221;-67
2023/08/19 09:26:13;;;;;;;3.08;2.78;;;;;;;;;;4965269;28;20210;-67
2023/08/19 09:28:42;;;;;;;2.63;2.40;;;;;;;;;;4968166;28;20847;-66
2023/08/19 09:31:20;;;;;;;2.72;2.53;;;;;;;;;;4966511;28;20217;-66
2023/08/19 09:33:47;;;;;;;3.97;2.78;;;;;;;;;;4966326;28;20209;-66
2023/08/19 09:36:14;;;;;;;4.35;3.22;;;;;;;;;;4966656;28;20237;-66
2023/08/19 09:38:42;;;;;;;2.88;2.78;;;;;;;;;;4966512;28;20298;-66
2023/08/19 09:41:10;;;;;;;4.18;2.80;;;;;;;;;;4965578;28;20218;-66
2023/08/19 09:43:39;;;;;;;3.55;3.35;;;;;;;;;;4962620;28;21546;-66
2023/08/19 09:46:08;;;;;;;3.03;2.83;;;;;;;;;;4966144;28;20638;-66
2023/08/19 09:48:36;;;;;;;3.40;3.10;;;;;;;;;;4965638;28;20622;-67
2023/08/19 09:51:03;;;;;;;3.15;3.05;;;;;;;;;;4966469;28;20217;-67
2023/08/19 09:53:31;;;;;;;3.13;2.80;;;;;;;;;;4966386;28;20198;-66
2023/08/19 09:55:58;;;;;;;4.38;2.63;;;;;;;;;;4966458;28;20443;-66
2023/08/19 09:58:26;;;;;;;7.93;3.00;;;;;;;;;;4966692;28;20321;-66
2023/08/19 10:00:53;;;;;;;4.05;2.78;;;;;;;;;;4966385;28;20264;-66
2023/08/19 10:03:21;;;;;;;4.53;2.95;;;;;;;;;;4961693;28;20238;-68
2023/08/19 10:05:52;;;;;;;2.90;2.80;;;;;;;;;;4964209;28;20222;-68
2023/08/19 10:08:19;;;;;;;5.38;2.80;;;;;;;;;;4964590;28;20214;-68
2023/08/19 10:10:47;;;;;;;6.13;2.95;;;;;;;;;;4966981;28;20242;-68
2023/08/19 10:13:14;;;;;;;3.10;2.90;;;;;;;;;;4966958;28;20244;-65
2023/08/19 10:15:42;;;;;;;3.30;3.20;;;;;;;;;;4966353;28;20210;-69
2023/08/19 10:18:13;;;;;;;3.40;3.20;;;;;;;;;;4967462;28;20218;-66
2023/08/19 10:20:42;;;;;;;3.55;2.90;;;;;;;;;;4948840;28;20217;-65
2023/08/19 10:23:10;;;;;;;3.72;3.42;;;;;;;;;;4966636;28;20242;-66
2023/08/19 10:25:40;;;;;;;4.30;3.40;;;;;;;;;;4964644;28;20260;-63
2023/08/19 10:28:14;;;;;;;3.63;3.33;;;;;;;;;;4963679;28;20225;-66
2023/08/19 10:30:41;;;;;;;22.77;6.10;;;;;;;;;;4964962;28;20712;-67
2023/08/19 10:33:27;;;;;;;10.77;3.35;;;;;;;;;;4959778;28;20210;-67
2023/08/19 10:36:04;;;;;;;5.45;3.97;;;;;;;;;;4957037;28;20611;-67
2023/08/19 10:38:41;;;;;;;8.75;4.35;;;;;;;;;;4966858;28;20210;-66
2023/08/19 10:41:16;;;;;;;8.48;4.18;;;;;;;;;;4966914;28;20628;-65
2023/08/19 10:43:54;;;;;;;4.88;4.47;;;;;;;;;;4947789;29;20245;-65
2023/08/19 10:46:25;;;;;;;6.82;3.20;;;;;;;;;;4961405;28;20214;-66
2023/08/19 10:48:52;;;;;;;5.03;3.58;;;;;;;;;;4966714;28;20501;-71
2023/08/19 10:51:21;;;;;;;5.13;3.40;;;;;;;;;;4966888;28;20199;-70
2023/08/19 10:53:51;;;;;;;3.85;3.10;;;;;;;;;;4967061;28;20206;-70
2023/08/19 10:56:20;;;;;;;3.65;3.35;;;;;;;;;;4966363;28;20523;-71
2023/08/19 10:58:48;;;;;;;4.13;3.55;;;;;;;;;;4965021;28;20677;-63
2023/08/19 11:01:15;;;;;;;3.70;3.40;;;;;;;;;;4966869;28;20216;-65
2023/08/19 11:03:42;;;;;;;3.38;3.17;;;;;;;;;;4966751;28;20308;-65
2023/08/19 11:06:09;;;;;;;3.67;3.40;;;;;;;;;;4964626;28;20244;-65
2023/08/19 11:08:44;;;;;;;5.00;3.45;;;;;;;;;;4979263;28;20584;-64
2023/08/19 11:11:15;;;;;;;4.88;3.72;;;;;;;;;;4962545;28;20259;-61
2023/08/19 11:13:42;;;;;;;3.80;3.53;;;;;;;;;;4966240;28;20202;-67
2023/08/19 11:16:09;;;;;;;4.43;3.35;;;;;;;;;;4964379;28;20206;-67
2023/08/19 11:18:40;;;;;;;5.18;3.92;;;;;;;;;;4965613;28;20206;-66
2023/08/19 11:21:07;;;;;;;4.10;3.75;;;;;;;;;;4969093;28;20264;-67
2023/08/19 11:23:34;;;;;;;7.43;3.75;;;;;;;;;;4951025;28;20241;-68
2023/08/19 11:26:03;;;;;;;7.82;4.15;;;;;;;;;;4965506;28;20206;-66
2023/08/19 11:28:30;;;;;;;6.15;4.55;;;;;;;;;;4969307;28;20224;-66
2023/08/19 11:30:57;;;;;;;5.55;3.92;;;;;;;;;;4969578;28;20201;-70
2023/08/19 11:33:26;;;;;;;9.10;4.15;;;;;;;;;;4963195;28;20224;-64
2023/08/19 11:35:53;;;;;;;4.07;3.85;;;;;;;;;;4958353;28;20602;-64
2023/08/19 11:38:20;;;;;;;5.40;4.90;;;;;;;;;;4965800;28;20221;-63
2023/08/19 11:40:47;;;;;;;5.72;3.80;;;;;;;;;;4969250;28;20214;-64
2023/08/19 11:43:15;;;;;;;4.78;3.70;;;;;;;;;;4968499;28;20218;-65
2023/08/19 11:45:42;;;;;;;4.50;3.80;;;;;;;;;;4968681;28;20210;-63
2023/08/19 11:48:13;;;;;;;5.03;4.65;;;;;;;;;;4969131;28;20217;-63
2023/08/19 11:50:44;;;;;;;4.05;3.85;;;;;;;;;;4967360;28;20228;-65
2023/08/19 11:53:21;;;;;;;5.13;4.07;;;;;;;;;;4968474;28;20205;-62
2023/08/19 11:55:49;;;;;;;11.07;4.28;;;;;;;;;;4976247;28;20205;-66
2023/08/19 11:58:17;;;;;;;4.38;4.07;;;;;;;;;;4968592;28;20202;-65
2023/08/19 12:00:45;;;;;;;7.72;4.30;;;;;;;;;;4973529;28;20198;-66
2023/08/19 12:03:12;;;;;;;4.00;3.80;;;;;;;;;;4977165;28;20201;-66
2023/08/19 12:05:39;;;;;;;4.15;3.92;;;;;;;;;;4968768;28;20272;-65
2023/08/19 12:08:06;;;;;;;8.38;4.63;;;;;;;;;;4969195;28;20686;-66
2023/08/19 12:10:40;;;;;;;3.97;3.65;;;;;;;;;;4969618;28;20272;-67
2023/08/19 12:13:07;;;;;;;5.85;4.40;;;;;;;;;;4968828;28;20961;-67
2023/08/19 12:15:36;;;;;;;4.82;4.40;;;;;;;;;;4968159;28;20210;-67
2023/08/19 12:18:03;;;;;;;5.45;4.38;;;;;;;;;;4970454;28;20218;-68
2023/08/19 12:20:30;;;;;;;4.82;4.22;;;;;;;;;;4968869;28;20218;-68
2023/08/19 12:22:57;;;;;;;7.85;4.10;;;;;;;;;;4968537;28;20213;-67
2023/08/19 12:25:25;;;;;;;4.95;4.50;;;;;;;;;;4968795;28;20230;-68
2023/08/19 12:27:52;;;;;;;4.57;4.18;;;;;;;;;;4968781;28;20210;-67
2023/08/19 12:30:19;;;;;;;7.20;3.97;;;;;;;;;;4967936;28;20206;-67
2023/08/19 12:32:48;;;;;;;4.47;4.13;;;;;;;;;;4967740;28;20209;-67
2023/08/19 12:35:15;;;;;;;5.20;4.60;;;;;;;;;;4968173;28;20301;-65
2023/08/19 12:37:42;;;;;;;6.38;4.80;;;;;;;;;;4986348;28;20224;-66
2023/08/19 12:40:10;;;;;;;4.57;4.20;;;;;;;;;;4971797;28;20214;-68
2023/08/19 12:42:37;;;;;;;4.80;4.47;;;;;;;;;;4967376;28;20633;-64
2023/08/19 12:45:05;;;;;;;5.53;5.00;;;;;;;;;;4963610;28;20234;-66
2023/08/19 12:47:32;;;;;;;5.53;5.05;;;;;;;;;;4963339;28;20345;-66
2023/08/19 12:50:00;;;;;;;9.40;5.82;;;;;;;;;;4964559;28;20260;-66
2023/08/19 12:52:27;;;;;;;6.45;5.70;;;;;;;;;;4967706;28;20307;-68
2023/08/19 12:54:54;;;;;;;11.50;5.47;;;;;;;;;;4967932;28;20214;-66
2023/08/19 12:57:21;;;;;;;6.13;5.15;;;;;;;;;;4967153;28;20213;-70
2023/08/19 12:59:49;;;;;;;8.82;5.15;;;;;;;;;;4967255;28;20238;-69
2023/08/19 13:02:16;;;;;;;7.65;5.72;;;;;;;;;;4967118;28;20202;-74
2023/08/19 13:04:43;;;;;;;6.50;4.90;;;;;;;;;;4966865;28;20227;-62
2023/08/19 13:07:11;;;;;;;7.53;5.40;;;;;;;;;;4966804;28;20213;-61
2023/08/19 13:09:39;;;;;;;5.35;4.72;;;;;;;;;;4967448;28;20229;-69
2023/08/19 13:12:06;;;;;;;9.93;5.07;;;;;;;;;;4967208;28;20293;-61
2023/08/19 13:14:33;;;;;;;9.07;5.00;;;;;;;;;;4965976;28;20223;-62
2023/08/19 13:17:00;;;;;;;5.70;5.00;;;;;;;;;;4965170;28;20224;-61
2023/08/19 13:19:27;;;;;;;9.93;5.63;;;;;;;;;;4971721;28;20259;-61
2023/08/19 13:21:54;;;;;;;6.05;4.95;;;;;;;;;;4972041;28;20210;-62
2023/08/19 13:24:23;;;;;;;9.00;5.32;;;;;;;;;;4967400;28;20321;-61
2023/08/19 13:26:50;;;;;;;6.07;4.97;;;;;;;;;;4966637;28;20214;-61
2023/08/19 13:29:17;;;;;;;5.70;5.20;;;;;;;;;;4967552;28;20222;-61
2023/08/19 13:31:44;;;;;;;8.15;5.68;;;;;;;;;;4967015;28;20214;-64
2023/08/19 13:34:11;;;;;;;7.68;5.43;;;;;;;;;;4967732;28;20220;-64
2023/08/19 13:36:38;;;;;;;5.82;5.22;;;;;;;;;;4967027;28;20214;-62
2023/08/19 13:39:05;;;;;;;5.50;4.97;;;;;;;;;;4967346;28;20210;-64
2023/08/19 13:41:33;;;;;;;6.18;4.75;;;;;;;;;;4967074;28;20221;-61
2023/08/19 13:44:01;;;;;;;6.57;4.80;;;;;;;;;;4964996;28;20213;-68
2023/08/19 13:46:28;;;;;;;7.60;5.57;;;;;;;;;;4965511;28;20363;-76
2023/08/19 13:48:55;;;;;;;5.57;5.07;;;;;;;;;;4965602;28;20668;-69
2023/08/19 13:51:23;;;;;;;10.10;5.22;;;;;;;;;;4967112;28;20222;-71
2023/08/19 13:53:50;;;;;;;5.22;4.80;;;;;;;;;;4967017;28;20213;-68
2023/08/19 13:56:17;;;;;;;5.70;5.03;;;;;;;;;;4966561;28;20206;-72
2023/08/19 13:58:45;;;;;;;5.45;4.60;;;;;;;;;;4966287;28;20545;-70
2023/08/19 14:01:14;;;;;;;8.32;4.85;;;;;;;;;;4967020;28;20335;-70
2023/08/19 14:03:41;;;;;;;5.70;4.70;;;;;;;;;;4967412;28;20209;-70
2023/08/19 14:06:08;;;;;;;4.88;4.45;;;;;;;;;;4966353;28;20444;-70
2023/08/19 14:08:36;;;;;;;4.85;4.45;;;;;;;;;;4965853;28;20205;-70
2023/08/19 14:11:03;;;;;;;7.35;5.68;;;;;;;;;;4965011;28;20237;-70
2023/08/19 14:13:30;;;;;;;5.20;4.90;;;;;;;;;;4967083;28;20214;-69
2023/08/19 14:15:59;;;;;;;4.90;4.60;;;;;;;;;;4966551;28;20206;-70
2023/08/19 14:18:26;;;;;;;4.30;3.92;;;;;;;;;;4966562;28;20440;-71
2023/08/19 14:20:53;;;;;;;5.90;4.32;;;;;;;;;;4966522;28;20587;-71
2023/08/19 14:23:20;;;;;;;4.93;4.60;;;;;;;;;;4966615;28;20217;-70
2023/08/19 14:25:47;;;;;;;6.53;4.10;;;;;;;;;;4966460;28;20233;-71
2023/08/19 14:28:15;;;;;;;4.65;4.35;;;;;;;;;;4966350;28;20676;-67
2023/08/19 14:30:43;;;;;;;7.00;4.10;;;;;;;;;;4965638;28;20241;-66
2023/08/19 14:33:12;;;;;;;4.80;4.50;;;;;;;;;;4966118;28;20206;-66
2023/08/19 14:35:41;;;;;;;8.00;4.57;;;;;;;;;;4965569;28;20213;-66
2023/08/19 14:38:08;;;;;;;4.82;4.30;;;;;;;;;;4966529;28;20224;-66
2023/08/19 14:40:35;;;;;;;6.47;4.50;;;;;;;;;;4966654;28;20214;-65
2023/08/19 14:43:02;;;;;;;4.78;4.38;;;;;;;;;;4966768;28;20217;-65
2023/08/19 14:45:29;;;;;;;10.52;4.60;;;;;;;;;;4966293;28;20234;-65
2023/08/19 14:47:56;;;;;;;4.55;4.13;;;;;;;;;;4966814;28;20205;-65